Terminal Aerodrome Forecast
Issued by NWS

Home | Current Version | Previous Version | Text Only | Print | Product List | Glossary On
Versions: 1 2 3 4 5 6 7 8 9 10 11 12 13 14 15 16 17 18 19
000
FTAK31 PANC 222325 AAA
TAFAEN
TAF AMD
PAEN 222325Z 2223/2324 VRB03KT P6SM SCT015 OVC020
      TEMPO 2300/2304 BKN015
     FM230600 VRB03KT P6SM VCFG BKN011 BKN025=

USA.gov is the U.S. government's official web portal to all federal, state and local government web resources and services.